createdAt,value
2018-04-30T00:00:21.146Z,13.70
2018-04-30T00:02:47.621Z,13.70
2018-04-30T00:05:13.881Z,13.80
2018-04-30T00:07:40.129Z,13.80
2018-04-30T00:10:07.151Z,13.90
2018-04-30T00:12:33.866Z,13.90
2018-04-30T00:15:00.153Z,13.80
2018-04-30T00:17:26.454Z,13.80
2018-04-30T00:19:52.725Z,13.70
2018-04-30T00:22:18.974Z,13.60
2018-04-30T00:24:45.469Z,13.50
2018-04-30T00:27:11.730Z,13.50
2018-04-30T00:29:38.395Z,13.50
2018-04-30T00:32:04.684Z,13.40
2018-04-30T00:34:31.358Z,13.50
2018-04-30T00:36:58.349Z,13.40
2018-04-30T00:39:24.624Z,13.40
2018-04-30T00:41:50.874Z,13.40
2018-04-30T00:44:17.738Z,13.40
2018-04-30T00:46:43.994Z,13.40
2018-04-30T00:49:10.775Z,13.50
2018-04-30T00:51:37.250Z,13.50
2018-04-30T00:54:03.552Z,13.50
2018-04-30T00:56:29.823Z,13.60
2018-04-30T00:58:56.107Z,13.70
2018-04-30T01:01:22.416Z,13.70
2018-04-30T01:03:49.474Z,13.60
2018-04-30T01:06:15.734Z,13.60
2018-04-30T01:08:42.010Z,13.60
2018-04-30T01:11:09.254Z,13.60
2018-04-30T01:13:39.274Z,13.60
2018-04-30T01:16:05.653Z,13.70
2018-04-30T01:18:32.621Z,13.60
2018-04-30T01:20:58.915Z,13.60
2018-04-30T01:23:25.424Z,13.60
2018-04-30T01:25:51.733Z,13.50
2018-04-30T01:28:17.993Z,13.50
2018-04-30T01:30:44.810Z,13.50
2018-04-30T01:33:11.081Z,13.50
2018-04-30T01:35:37.681Z,13.40
2018-04-30T01:38:04.040Z,13.40
2018-04-30T01:40:30.914Z,13.50
2018-04-30T01:42:57.256Z,13.50
2018-04-30T01:45:24.250Z,13.60
2018-04-30T01:47:50.485Z,13.60
2018-04-30T01:50:17.323Z,13.70
2018-04-30T01:52:43.577Z,13.70
2018-04-30T01:55:10.041Z,13.70
2018-04-30T01:57:36.284Z,13.70
2018-04-30T02:00:03.997Z,13.70
2018-04-30T02:02:30.269Z,13.70
2018-04-30T02:04:56.552Z,13.70
2018-04-30T02:07:23.237Z,13.60
2018-04-30T02:09:49.537Z,13.70
2018-04-30T02:12:16.378Z,13.70
2018-04-30T02:14:43.476Z,13.70
2018-04-30T02:17:09.758Z,13.70
2018-04-30T02:19:36.590Z,13.60
2018-04-30T02:22:02.941Z,13.60
2018-04-30T02:24:29.238Z,13.60
2018-04-30T02:26:55.891Z,13.60
2018-04-30T02:29:22.185Z,13.60
2018-04-30T02:31:49.426Z,13.60
2018-04-30T02:34:15.690Z,13.70
2018-04-30T02:36:42.122Z,13.70
2018-04-30T02:39:08.453Z,13.60
2018-04-30T02:41:35.118Z,13.60
2018-04-30T02:44:01.416Z,13.60
2018-04-30T02:46:27.718Z,13.60
2018-04-30T02:48:53.970Z,13.60
2018-04-30T02:51:21.645Z,13.60
2018-04-30T02:53:48.000Z,13.60
2018-04-30T02:56:15.022Z,13.60
2018-04-30T02:58:41.286Z,13.60
2018-04-30T03:01:07.906Z,13.60
2018-04-30T03:03:34.181Z,13.60
2018-04-30T03:06:00.525Z,13.60
2018-04-30T03:08:28.062Z,13.60
2018-04-30T03:10:54.780Z,13.70
2018-04-30T03:13:21.054Z,13.60
2018-04-30T03:15:47.361Z,13.60
2018-04-30T03:18:13.625Z,13.60
2018-04-30T03:20:39.917Z,13.60
2018-04-30T03:23:06.453Z,13.60
2018-04-30T03:25:32.714Z,13.60
2018-04-30T03:27:59.594Z,13.60
2018-04-30T03:30:25.857Z,13.70
2018-04-30T03:32:52.482Z,13.60
2018-04-30T03:35:18.762Z,13.60
2018-04-30T03:37:45.844Z,13.60
2018-04-30T03:42:58.874Z,13.50
2018-04-30T03:45:25.169Z,13.50
2018-04-30T03:47:51.727Z,13.30
2018-04-30T03:50:17.972Z,13.20
2018-04-30T03:52:44.257Z,13.10
2018-04-30T03:55:10.521Z,13.00
2018-04-30T03:57:36.823Z,12.90
2018-04-30T04:00:03.141Z,12.80
2018-04-30T04:02:42.306Z,12.70
2018-04-30T04:05:20.773Z,12.70
2018-04-30T04:07:47.037Z,12.60
2018-04-30T04:10:13.645Z,12.60
2018-04-30T04:12:41.140Z,12.60
2018-04-30T04:15:07.415Z,12.60
2018-04-30T04:17:34.846Z,12.80
2018-04-30T04:20:01.138Z,12.70
2018-04-30T04:22:27.386Z,12.80
2018-04-30T04:24:53.665Z,12.90
2018-04-30T04:27:20.677Z,13.00
2018-04-30T04:29:47.049Z,12.90
2018-04-30T04:32:13.383Z,13.00
2018-04-30T04:34:40.420Z,13.00
2018-04-30T04:37:06.695Z,13.00
2018-04-30T04:39:32.965Z,13.00
2018-04-30T04:41:59.217Z,13.00
2018-04-30T04:44:26.240Z,13.00
2018-04-30T04:46:52.497Z,12.90
2018-04-30T04:49:18.926Z,13.00
2018-04-30T04:51:45.224Z,13.00
2018-04-30T04:54:11.793Z,13.00
2018-04-30T04:56:38.210Z,13.00
2018-04-30T04:59:04.463Z,13.10
2018-04-30T05:01:30.773Z,13.10
2018-04-30T05:03:57.040Z,13.00
2018-04-30T05:06:23.702Z,13.10
2018-04-30T05:08:49.983Z,13.10
2018-04-30T05:11:16.817Z,13.10
2018-04-30T05:13:43.054Z,13.10
2018-04-30T05:16:09.693Z,13.20
2018-04-30T05:18:35.936Z,13.20
2018-04-30T05:21:03.105Z,13.20
2018-04-30T05:23:30.161Z,13.20
2018-04-30T05:25:56.438Z,13.10
2018-04-30T05:28:22.730Z,13.10
2018-04-30T05:30:49.473Z,13.20
2018-04-30T05:33:15.713Z,13.20
2018-04-30T05:35:42.257Z,13.20
2018-04-30T05:38:08.525Z,13.20
2018-04-30T05:40:34.769Z,13.20
2018-04-30T05:43:01.017Z,13.20
2018-04-30T05:45:27.281Z,13.20
2018-04-30T05:47:53.857Z,13.20
2018-04-30T05:50:20.110Z,13.10
2018-04-30T05:52:46.570Z,13.10
2018-04-30T05:55:13.049Z,13.10
2018-04-30T05:57:39.325Z,13.00
2018-04-30T06:00:05.631Z,13.00
2018-04-30T06:02:31.894Z,12.90
2018-04-30T06:04:58.385Z,13.00
2018-04-30T06:07:24.650Z,13.00
2018-04-30T06:09:51.605Z,13.00
2018-04-30T06:12:17.874Z,13.10
2018-04-30T06:14:44.111Z,13.00
2018-04-30T06:17:10.421Z,13.00
2018-04-30T06:19:36.657Z,12.90
2018-04-30T06:22:03.441Z,12.90
2018-04-30T06:24:30.284Z,12.80
2018-04-30T06:26:57.248Z,12.70
2018-04-30T06:29:23.469Z,12.80
2018-04-30T06:31:50.066Z,12.80
2018-04-30T06:34:16.337Z,12.80
2018-04-30T06:36:43.029Z,12.80
2018-04-30T06:39:09.901Z,12.80
2018-04-30T06:41:36.173Z,12.70
2018-04-30T06:44:02.456Z,12.70
2018-04-30T06:46:29.463Z,12.80
2018-04-30T06:48:55.735Z,12.80
2018-04-30T06:51:22.309Z,12.80
2018-04-30T06:53:48.995Z,12.90
2018-04-30T06:56:15.539Z,13.00
2018-04-30T06:58:43.735Z,13.00
2018-04-30T07:01:10.792Z,13.00
2018-04-30T07:03:37.070Z,13.00
2018-04-30T07:06:05.249Z,13.10
2018-04-30T07:08:31.548Z,13.10
2018-04-30T07:10:57.807Z,13.10
2018-04-30T07:13:24.609Z,13.20
2018-04-30T07:15:50.890Z,13.20
2018-04-30T07:18:17.718Z,13.20
2018-04-30T07:20:43.997Z,13.10
2018-04-30T07:23:11.109Z,13.20
2018-04-30T07:25:37.597Z,13.30
2018-04-30T07:28:04.899Z,13.30
2018-04-30T07:30:31.173Z,13.30
2018-04-30T07:32:58.421Z,13.20
2018-04-30T07:35:25.489Z,13.10
2018-04-30T07:37:51.785Z,13.10
2018-04-30T07:40:18.183Z,13.10
2018-04-30T07:42:45.457Z,12.90
2018-04-30T07:45:11.762Z,12.90
2018-04-30T07:47:38.193Z,12.90
2018-04-30T07:50:04.539Z,12.90
2018-04-30T07:52:31.058Z,12.80
2018-04-30T07:54:57.321Z,12.80
2018-04-30T07:57:23.667Z,12.90
2018-04-30T07:59:50.612Z,13.10
2018-04-30T08:02:16.930Z,13.00
2018-04-30T08:04:43.223Z,13.00
2018-04-30T08:07:09.605Z,13.00
2018-04-30T08:09:36.190Z,12.90
2018-04-30T08:12:02.637Z,13.00
2018-04-30T08:14:31.877Z,13.10
2018-04-30T08:16:58.202Z,13.00
2018-04-30T08:19:24.474Z,13.10
2018-04-30T08:21:50.717Z,13.20
2018-04-30T08:24:17.913Z,13.50
2018-04-30T08:26:44.153Z,13.40
2018-04-30T08:29:10.430Z,13.40
2018-04-30T08:31:37.430Z,13.50
2018-04-30T08:34:03.697Z,13.50
2018-04-30T08:36:29.977Z,13.50
2018-04-30T08:38:56.241Z,13.40
2018-04-30T08:41:22.968Z,13.40
2018-04-30T08:43:49.234Z,13.50
2018-04-30T08:46:16.317Z,13.50
2018-04-30T08:48:46.509Z,13.50
2018-04-30T08:51:13.026Z,13.30
2018-04-30T08:53:39.281Z,13.20
2018-04-30T08:56:06.301Z,13.40
2018-04-30T08:58:32.541Z,13.40
2018-04-30T09:00:58.869Z,13.40
2018-04-30T09:03:25.119Z,13.60
2018-04-30T09:05:51.417Z,13.60
2018-04-30T09:08:21.702Z,13.70
2018-04-30T09:10:47.998Z,13.70
2018-04-30T09:13:14.257Z,13.70
2018-04-30T09:15:41.195Z,13.60
2018-04-30T09:18:07.541Z,13.50
2018-04-30T09:20:33.777Z,13.40
2018-04-30T09:23:00.787Z,13.70
2018-04-30T09:25:27.790Z,13.80
2018-04-30T09:27:54.633Z,13.70
2018-04-30T09:30:20.907Z,13.60
2018-04-30T09:32:47.281Z,13.70
2018-04-30T09:35:13.546Z,13.80
2018-04-30T09:37:39.850Z,14.00
2018-04-30T09:40:07.875Z,14.40
2018-04-30T09:42:34.194Z,14.40
2018-04-30T09:45:00.451Z,14.50
2018-04-30T09:47:26.744Z,14.70
2018-04-30T09:49:53.333Z,14.80
2018-04-30T09:52:20.170Z,14.90
2018-04-30T09:54:46.481Z,14.70
2018-04-30T09:57:13.017Z,14.60
2018-04-30T09:59:39.265Z,14.50
2018-04-30T10:02:05.517Z,14.60
2018-04-30T10:04:31.845Z,14.70
2018-04-30T10:06:58.105Z,14.70
2018-04-30T10:09:27.103Z,14.60
2018-04-30T10:11:53.345Z,14.60
2018-04-30T10:14:20.301Z,14.50
2018-04-30T10:16:46.567Z,14.50
2018-04-30T10:19:13.173Z,14.50
2018-04-30T10:21:39.438Z,14.50
2018-04-30T10:24:07.413Z,14.60
2018-04-30T10:26:33.670Z,14.50
2018-04-30T10:29:00.739Z,14.00
2018-04-30T10:31:27.607Z,14.00
2018-04-30T10:33:53.946Z,14.00
2018-04-30T10:36:20.658Z,13.90
2018-04-30T10:38:46.964Z,13.90
2018-04-30T10:41:13.879Z,13.80
2018-04-30T10:43:40.177Z,13.70
2018-04-30T10:46:06.473Z,13.70
2018-04-30T10:48:32.931Z,13.70
2018-04-30T10:50:59.774Z,13.70
2018-04-30T10:53:27.268Z,13.80
2018-04-30T10:55:53.539Z,13.70
2018-04-30T10:58:20.001Z,13.80
2018-04-30T11:00:46.277Z,13.90
2018-04-30T11:03:12.541Z,14.00
2018-04-30T11:05:38.814Z,14.10
2018-04-30T11:08:05.097Z,14.30
2018-04-30T11:10:31.361Z,14.50
2018-04-30T11:12:57.609Z,14.50
2018-04-30T11:15:23.885Z,14.60
2018-04-30T11:17:50.121Z,14.60
2018-04-30T11:20:16.833Z,14.50
2018-04-30T11:22:45.492Z,14.30
2018-04-30T11:25:11.743Z,14.30
2018-04-30T11:27:38.003Z,14.20
2018-04-30T11:30:04.355Z,14.10
2018-04-30T11:32:31.389Z,14.50
2018-04-30T11:34:57.705Z,14.50
2018-04-30T11:37:25.045Z,16.00
2018-04-30T11:39:51.321Z,15.90
2018-04-30T11:42:18.417Z,16.50
2018-04-30T11:44:44.721Z,16.50
2018-04-30T11:47:10.999Z,16.80
2018-04-30T11:49:37.338Z,16.80
2018-04-30T11:52:03.839Z,16.40
2018-04-30T11:54:30.453Z,15.90
2018-04-30T11:56:56.771Z,15.40
2018-04-30T11:59:23.765Z,15.90
2018-04-30T12:01:50.043Z,15.90
2018-04-30T12:04:17.064Z,15.30
2018-04-30T12:06:43.578Z,15.30
2018-04-30T12:09:10.337Z,15.00
2018-04-30T12:11:36.624Z,14.90
2018-04-30T12:14:03.026Z,14.80
2018-04-30T12:16:29.348Z,14.60
2018-04-30T12:18:55.721Z,14.40
2018-04-30T12:21:22.017Z,14.20
2018-04-30T12:23:48.741Z,14.40
2018-04-30T12:26:15.467Z,14.70
2018-04-30T12:28:42.766Z,15.20
2018-04-30T12:31:09.062Z,15.50
2018-04-30T12:33:35.812Z,15.30
2018-04-30T12:36:02.851Z,14.60
2018-04-30T12:38:29.089Z,14.50
2018-04-30T12:40:55.466Z,14.30
2018-04-30T12:43:21.733Z,14.10
2018-04-30T12:45:48.019Z,14.20
2018-04-30T12:48:15.061Z,14.10
2018-04-30T12:50:41.367Z,14.10
2018-04-30T12:53:07.746Z,13.90
2018-04-30T12:55:34.761Z,13.20
2018-04-30T12:58:01.825Z,12.90
2018-04-30T13:00:28.341Z,12.90
2018-04-30T13:02:54.637Z,12.30
2018-04-30T13:05:20.894Z,12.20
2018-04-30T13:07:47.189Z,12.50
2018-04-30T13:10:13.510Z,12.80
2018-04-30T13:12:41.045Z,13.80
2018-04-30T13:15:07.299Z,13.80
2018-04-30T13:17:34.446Z,14.10
2018-04-30T13:20:00.700Z,14.50
2018-04-30T13:22:27.313Z,15.20
2018-04-30T13:24:53.557Z,15.60
2018-04-30T13:27:19.817Z,15.60
2018-04-30T13:29:46.120Z,15.90
2018-04-30T13:32:12.739Z,16.00
2018-04-30T13:34:39.054Z,16.40
2018-04-30T13:37:06.808Z,16.60
2018-04-30T13:39:33.165Z,17.50
2018-04-30T13:41:59.485Z,17.80
2018-04-30T13:44:25.770Z,17.50
2018-04-30T13:46:52.042Z,16.60
2018-04-30T13:49:18.386Z,16.00
2018-04-30T13:51:44.688Z,15.50
2018-04-30T13:54:11.350Z,14.80
2018-04-30T13:56:37.633Z,14.40
2018-04-30T13:59:04.261Z,14.50
2018-04-30T14:01:31.544Z,14.60
2018-04-30T14:03:58.381Z,14.70
2018-04-30T14:06:24.622Z,15.00
2018-04-30T14:08:51.257Z,16.20
2018-04-30T14:11:17.526Z,17.10
2018-04-30T14:13:44.254Z,18.60
2018-04-30T14:16:10.534Z,18.60
2018-04-30T14:18:37.102Z,17.90
2018-04-30T14:21:03.356Z,17.20
2018-04-30T14:23:29.624Z,16.70
2018-04-30T14:25:56.686Z,16.80
2018-04-30T14:28:22.941Z,16.70
2018-04-30T14:30:49.188Z,17.20
2018-04-30T14:33:15.441Z,17.20
2018-04-30T14:35:41.721Z,17.00
2018-04-30T14:38:07.965Z,16.40
2018-04-30T14:40:34.245Z,15.20
2018-04-30T14:43:00.638Z,15.30
2018-04-30T14:45:26.917Z,16.30
2018-04-30T14:47:53.424Z,17.70
2018-04-30T14:50:20.585Z,19.00
2018-04-30T14:52:47.203Z,20.70
2018-04-30T14:55:13.509Z,19.70
2018-04-30T14:57:40.442Z,18.90
2018-04-30T15:00:06.731Z,18.20
2018-04-30T15:02:33.311Z,19.50
2018-04-30T15:05:02.334Z,17.50
2018-04-30T15:07:28.598Z,17.40
2018-04-30T15:09:54.876Z,16.90
2018-04-30T15:12:21.275Z,16.70
2018-04-30T15:14:48.309Z,16.60
2018-04-30T15:17:14.560Z,17.30
2018-04-30T15:19:41.182Z,18.40
2018-04-30T15:22:07.429Z,18.50
2018-04-30T15:24:33.703Z,17.40
2018-04-30T15:27:00.079Z,16.40
2018-04-30T15:29:26.365Z,15.70
2018-04-30T15:31:52.710Z,15.00
2018-04-30T15:34:18.979Z,14.80
2018-04-30T15:36:45.226Z,15.10
2018-04-30T15:39:11.485Z,15.70
2018-04-30T15:41:37.770Z,16.50
2018-04-30T15:44:04.397Z,15.90
2018-04-30T15:46:30.649Z,15.40
2018-04-30T15:48:57.489Z,15.60
2018-04-30T15:51:23.781Z,16.90
2018-04-30T15:53:50.269Z,17.70
2018-04-30T15:56:16.573Z,17.40
2018-04-30T15:58:42.822Z,17.10
2018-04-30T16:01:09.101Z,16.70
2018-04-30T16:03:35.337Z,16.20
2018-04-30T16:06:01.889Z,16.00
2018-04-30T16:08:28.137Z,15.50
2018-04-30T16:10:54.934Z,15.00
2018-04-30T16:13:21.941Z,14.50
2018-04-30T16:15:48.466Z,14.50
2018-04-30T16:18:15.699Z,14.20
2018-04-30T16:20:42.009Z,14.00
2018-04-30T16:23:08.253Z,13.90
2018-04-30T16:25:34.849Z,13.80
2018-04-30T16:28:01.141Z,13.80
2018-04-30T16:30:27.421Z,13.80
2018-04-30T16:32:53.677Z,13.70
2018-04-30T16:35:19.933Z,13.70
2018-04-30T16:37:46.435Z,13.70
2018-04-30T16:40:12.706Z,13.60
2018-04-30T16:42:38.953Z,13.70
2018-04-30T16:45:05.746Z,13.80
2018-04-30T16:47:32.009Z,13.80
2018-04-30T16:49:58.281Z,13.80
2018-04-30T16:52:24.556Z,13.80
2018-04-30T16:54:51.005Z,13.50
2018-04-30T16:57:17.249Z,13.50
2018-04-30T16:59:43.498Z,13.50
2018-04-30T17:02:10.285Z,13.40
2018-04-30T17:04:36.582Z,13.30
2018-04-30T17:07:02.886Z,13.30
2018-04-30T17:09:29.141Z,13.30
2018-04-30T17:11:55.434Z,13.20
2018-04-30T17:14:21.985Z,12.90
2018-04-30T17:16:48.269Z,12.70
2018-04-30T17:19:14.874Z,13.10
2018-04-30T17:21:44.038Z,13.00
2018-04-30T17:24:10.651Z,12.80
2018-04-30T17:26:36.882Z,12.70
2018-04-30T17:29:03.181Z,12.80
2018-04-30T17:31:29.437Z,12.70
2018-04-30T17:33:55.774Z,12.70
2018-04-30T17:36:22.833Z,12.60
2018-04-30T17:38:49.849Z,12.70
2018-04-30T17:41:17.054Z,12.80
2018-04-30T17:43:44.413Z,12.70
2018-04-30T17:46:10.933Z,12.70
2018-04-30T17:48:37.533Z,12.60
2018-04-30T17:51:04.165Z,12.60
2018-04-30T17:53:30.458Z,12.50
2018-04-30T17:55:56.735Z,12.30
2018-04-30T17:58:23.012Z,12.10
2018-04-30T18:00:50.028Z,11.90
2018-04-30T18:03:16.437Z,11.80
2018-04-30T18:05:42.721Z,11.80
2018-04-30T18:08:09.934Z,11.70
2018-04-30T18:10:36.202Z,11.70
2018-04-30T18:13:02.484Z,11.70
2018-04-30T18:15:29.280Z,11.60
2018-04-30T18:17:56.325Z,11.50
2018-04-30T18:20:22.569Z,11.50
2018-04-30T18:22:48.829Z,11.50
2018-04-30T18:25:15.085Z,11.50
2018-04-30T18:27:41.398Z,11.40
2018-04-30T18:30:07.676Z,11.20
2018-04-30T18:32:33.956Z,11.30
2018-04-30T18:35:00.729Z,11.20
2018-04-30T18:37:26.993Z,11.10
2018-04-30T18:39:53.473Z,11.00
2018-04-30T18:42:19.745Z,11.00
2018-04-30T18:44:50.494Z,11.00
2018-04-30T18:47:16.842Z,10.90
2018-04-30T18:49:44.109Z,10.90
2018-04-30T18:52:11.670Z,10.90
2018-04-30T18:54:37.969Z,10.90
2018-04-30T18:57:04.286Z,10.90
2018-04-30T18:59:30.521Z,10.90
2018-04-30T19:01:56.845Z,10.90
2018-04-30T19:04:23.105Z,10.80
2018-04-30T19:06:49.373Z,10.60
2018-04-30T19:09:15.626Z,10.60
2018-04-30T19:11:41.898Z,10.60
2018-04-30T19:14:08.363Z,10.50
2018-04-30T19:16:34.673Z,10.30
2018-04-30T19:19:01.034Z,10.30
2018-04-30T19:21:27.504Z,10.20
2018-04-30T19:23:53.777Z,10.10
2018-04-30T19:26:20.068Z,9.90
2018-04-30T19:28:46.321Z,9.90
2018-04-30T19:31:12.574Z,9.90
2018-04-30T19:33:39.043Z,9.90
2018-04-30T19:36:05.293Z,9.80
2018-04-30T19:38:31.564Z,9.80
2018-04-30T19:40:57.805Z,9.80
2018-04-30T19:43:24.068Z,9.80
2018-04-30T19:45:50.614Z,9.70
2018-04-30T19:48:16.885Z,9.70
2018-04-30T19:50:43.141Z,9.70
2018-04-30T19:53:09.413Z,9.70
2018-04-30T19:55:35.657Z,9.60
2018-04-30T19:58:02.470Z,9.60
2018-04-30T20:00:28.712Z,9.60
2018-04-30T20:02:54.981Z,9.70
2018-04-30T20:05:21.237Z,9.70
2018-04-30T20:07:47.501Z,9.60
2018-04-30T20:10:14.139Z,9.60
2018-04-30T20:12:40.401Z,9.60
2018-04-30T20:15:06.706Z,9.60
2018-04-30T20:17:32.991Z,9.50
2018-04-30T20:19:59.741Z,9.50
2018-04-30T20:22:26.566Z,9.60
2018-04-30T20:24:52.821Z,9.60
2018-04-30T20:27:19.855Z,9.40
2018-04-30T20:29:46.849Z,9.50
2018-04-30T20:32:13.102Z,9.40
2018-04-30T20:34:39.443Z,9.50
2018-04-30T20:37:05.701Z,9.40
2018-04-30T20:39:32.584Z,9.40
2018-04-30T20:41:58.817Z,9.40
2018-04-30T20:44:25.537Z,9.40
2018-04-30T20:46:52.496Z,9.40
2018-04-30T20:49:19.155Z,9.30
2018-04-30T20:51:45.373Z,9.40
2018-04-30T20:54:11.618Z,9.30
2018-04-30T20:56:37.873Z,9.30
2018-04-30T20:59:04.114Z,9.20
2018-04-30T21:01:30.927Z,9.20
2018-04-30T21:03:57.169Z,9.10
2018-04-30T21:06:23.980Z,9.20
2018-04-30T21:09:03.164Z,9.00
2018-04-30T21:11:29.455Z,9.00
2018-04-30T21:13:55.687Z,8.80
2018-04-30T21:16:21.950Z,8.80
2018-04-30T21:18:48.185Z,8.70
2018-04-30T21:21:14.441Z,8.70
2018-04-30T21:23:55.932Z,8.80
2018-04-30T21:26:22.257Z,8.80
2018-04-30T21:28:48.425Z,8.90
2018-04-30T21:31:14.666Z,8.80
2018-04-30T21:33:42.820Z,8.80
2018-04-30T21:36:12.819Z,8.70
2018-04-30T21:38:42.220Z,8.80
2018-04-30T21:41:10.265Z,8.80
2018-04-30T21:43:38.673Z,8.70
2018-04-30T21:46:10.228Z,8.80
2018-04-30T21:48:39.734Z,8.70
2018-04-30T21:51:08.217Z,8.70
2018-04-30T21:53:36.219Z,8.70
2018-04-30T21:56:03.657Z,8.70
2018-04-30T21:58:29.953Z,8.60
2018-04-30T22:00:56.325Z,8.50
2018-04-30T22:03:22.583Z,8.50
2018-04-30T22:05:48.862Z,8.50
2018-04-30T22:08:15.597Z,8.40
2018-04-30T22:10:42.562Z,8.30
2018-04-30T22:13:11.255Z,8.30
2018-04-30T22:15:41.278Z,8.30
2018-04-30T22:18:08.493Z,8.40
2018-04-30T22:20:36.704Z,8.30
2018-04-30T22:23:04.675Z,8.20
2018-04-30T22:25:31.369Z,8.20
2018-04-30T22:27:57.630Z,8.20
2018-04-30T22:30:23.848Z,8.20
2018-04-30T22:32:50.109Z,8.10
2018-04-30T22:35:16.354Z,8.10
2018-04-30T22:37:43.045Z,8.00
2018-04-30T22:40:09.261Z,8.10
2018-04-30T22:42:38.212Z,8.00
2018-04-30T22:45:06.690Z,8.00
2018-04-30T22:47:36.709Z,8.00
2018-04-30T22:50:03.757Z,8.00
2018-04-30T22:52:31.150Z,8.00
2018-04-30T22:54:57.417Z,8.00
2018-04-30T22:57:23.649Z,8.00
2018-04-30T22:59:49.895Z,8.00
2018-04-30T23:02:16.150Z,7.90
2018-04-30T23:04:42.382Z,8.00
2018-04-30T23:07:08.634Z,7.90
2018-04-30T23:09:39.249Z,7.90
2018-04-30T23:12:08.889Z,7.80
2018-04-30T23:14:38.361Z,7.80
2018-04-30T23:17:08.844Z,7.90
2018-04-30T23:19:38.227Z,7.90
2018-04-30T23:22:08.218Z,7.80
2018-04-30T23:24:39.187Z,7.70
2018-04-30T23:27:08.856Z,7.70
2018-04-30T23:29:36.315Z,7.70
2018-04-30T23:32:07.870Z,7.70
2018-04-30T23:34:35.253Z,7.70
2018-04-30T23:37:03.404Z,7.60
2018-04-30T23:39:31.784Z,7.60
2018-04-30T23:41:58.444Z,7.70
2018-04-30T23:44:25.679Z,7.70
2018-04-30T23:46:51.911Z,7.70
2018-04-30T23:49:18.485Z,7.70
2018-04-30T23:51:44.768Z,7.70
2018-04-30T23:54:11.017Z,7.70
2018-04-30T23:56:38.649Z,7.70
2018-04-30T23:59:08.869Z,7.70
